Time;durP1;ratioP1;P1;durP2;ratioP2;P2;SDS_P1;SDS_P2;PMS_P1;PMS_P2;Temp;Humidity;BMP_temperature;BMP_pressure;BME280_temperature;BME280_humidity;BME280_pressure;Samples;Min_cycle;Max_cycle;Signal;HPM_P1;HPM_P2
2022/08/02 00:02:21;;;;;;;12.80;4.28;;;;;;;;;;5077604;28;20396;-78
2022/08/02 00:04:47;;;;;;;11.35;3.80;;;;;;;;;;5060254;28;20373;-77
2022/08/02 00:07:14;;;;;;;8.98;3.70;;;;;;;;;;5077166;28;20044;-78
2022/08/02 00:09:40;;;;;;;7.45;3.45;;;;;;;;;;5076081;28;20044;-77
2022/08/02 00:12:07;;;;;;;18.85;4.45;;;;;;;;;;5095145;28;20059;-77
2022/08/02 00:14:33;;;;;;;10.30;3.45;;;;;;;;;;5076776;28;20040;-77
2022/08/02 00:16:59;;;;;;;10.82;3.40;;;;;;;;;;5094803;28;20085;-78
2022/08/02 00:19:25;;;;;;;12.20;3.70;;;;;;;;;;5077279;28;20039;-78
2022/08/02 00:21:51;;;;;;;11.30;3.58;;;;;;;;;;5076468;28;20066;-78
2022/08/02 00:24:17;;;;;;;12.48;3.60;;;;;;;;;;5060082;28;20046;-78
2022/08/02 00:26:43;;;;;;;10.82;3.50;;;;;;;;;;5075832;28;20052;-78
2022/08/02 00:29:09;;;;;;;10.15;3.25;;;;;;;;;;5066573;28;20048;-78
2022/08/02 00:31:35;;;;;;;13.10;4.18;;;;;;;;;;5071129;28;20485;-78
2022/08/02 00:34:02;;;;;;;9.88;3.80;;;;;;;;;;5088045;28;20036;-78
2022/08/02 00:36:28;;;;;;;9.60;3.17;;;;;;;;;;5076788;28;20043;-77
2022/08/02 00:38:54;;;;;;;8.77;3.97;;;;;;;;;;5059741;28;20036;-77
2022/08/02 00:41:21;;;;;;;12.30;3.60;;;;;;;;;;5075026;28;20040;-78
2022/08/02 00:43:48;;;;;;;9.63;3.78;;;;;;;;;;5076024;28;20121;-77
2022/08/02 00:46:15;;;;;;;10.63;3.65;;;;;;;;;;5059794;28;20043;-77
2022/08/02 00:48:41;;;;;;;10.35;3.38;;;;;;;;;;5047350;28;20076;-77
2022/08/02 00:51:07;;;;;;;8.82;3.55;;;;;;;;;;5056836;28;20079;-77
2022/08/02 00:53:33;;;;;;;8.98;3.80;;;;;;;;;;5059604;28;20097;-77
2022/08/02 00:55:59;;;;;;;9.00;3.80;;;;;;;;;;5076013;28;20035;-77
2022/08/02 00:58:25;;;;;;;7.75;3.35;;;;;;;;;;5076567;28;20039;-77
2022/08/02 01:00:56;;;;;;;11.38;3.75;;;;;;;;;;5075737;28;20123;-77
2022/08/02 01:03:25;;;;;;;12.63;3.55;;;;;;;;;;5076019;28;20082;-78
2022/08/02 01:05:51;;;;;;;13.40;3.53;;;;;;;;;;5075941;28;20040;-77
2022/08/02 01:08:17;;;;;;;12.98;3.80;;;;;;;;;;5059512;28;20484;-77
2022/08/02 01:10:44;;;;;;;9.15;3.22;;;;;;;;;;5075381;28;20109;-77
2022/08/02 01:13:10;;;;;;;9.63;4.00;;;;;;;;;;5059008;28;20577;-77
2022/08/02 01:15:39;;;;;;;9.15;3.60;;;;;;;;;;5076111;28;20124;-77
2022/08/02 01:18:08;;;;;;;10.40;3.60;;;;;;;;;;5075355;28;20507;-77
2022/08/02 01:20:40;;;;;;;7.35;3.50;;;;;;;;;;5076189;28;20048;-77
2022/08/02 01:23:19;;;;;;;7.90;3.42;;;;;;;;;;5063937;28;20040;-77
2022/08/02 01:26:00;;;;;;;9.27;3.72;;;;;;;;;;5068459;28;20040;-77
2022/08/02 01:28:38;;;;;;;7.57;3.88;;;;;;;;;;5080791;28;20119;-77
2022/08/02 01:31:24;;;;;;;8.40;3.58;;;;;;;;;;5046138;28;20129;-76
2022/08/02 01:33:53;;;;;;;6.95;3.40;;;;;;;;;;5069588;28;20046;-77
2022/08/02 01:36:22;;;;;;;8.88;3.55;;;;;;;;;;5075444;28;20083;-77
2022/08/02 01:38:49;;;;;;;9.00;3.50;;;;;;;;;;5075605;28;20052;-77
2022/08/02 01:41:18;;;;;;;8.48;3.40;;;;;;;;;;5074103;28;20044;-74
2022/08/02 01:43:44;;;;;;;8.32;3.30;;;;;;;;;;5075291;28;20031;-77
2022/08/02 01:46:12;;;;;;;9.68;3.63;;;;;;;;;;5058138;28;20072;-77
2022/08/02 01:48:40;;;;;;;9.27;4.25;;;;;;;;;;5075594;28;20040;-76
2022/08/02 01:51:07;;;;;;;8.60;3.70;;;;;;;;;;5074956;28;20063;-74
2022/08/02 01:53:35;;;;;;;10.48;3.60;;;;;;;;;;5075470;28;20442;-77
2022/08/02 01:56:01;;;;;;;10.00;3.10;;;;;;;;;;5091453;28;20028;-74
2022/08/02 01:58:34;;;;;;;13.18;3.60;;;;;;;;;;5062892;28;20511;-72
2022/08/02 02:01:01;;;;;;;9.60;3.25;;;;;;;;;;5092538;28;20048;-76
2022/08/02 02:03:28;;;;;;;9.23;3.25;;;;;;;;;;5076763;28;20040;-76
2022/08/02 02:05:56;;;;;;;7.72;3.40;;;;;;;;;;5076078;28;20566;-77
2022/08/02 02:08:30;;;;;;;8.88;3.72;;;;;;;;;;5073252;28;20043;-73
2022/08/02 02:10:57;;;;;;;8.70;4.25;;;;;;;;;;5065934;28;20040;-75
2022/08/02 02:13:23;;;;;;;8.55;3.50;;;;;;;;;;5073716;28;20032;-76
2022/08/02 02:15:50;;;;;;;7.90;3.70;;;;;;;;;;5075761;28;20040;-74
2022/08/02 02:18:27;;;;;;;13.05;4.35;;;;;;;;;;5064153;28;20073;-76
2022/08/02 02:20:53;;;;;;;9.88;4.03;;;;;;;;;;5057156;28;20033;-77
2022/08/02 02:23:20;;;;;;;10.60;4.38;;;;;;;;;;5076331;28;20215;-77
2022/08/02 02:25:46;;;;;;;13.52;4.30;;;;;;;;;;5068579;28;20550;-76
2022/08/02 02:28:28;;;;;;;12.20;4.15;;;;;;;;;;5060511;28;20052;-77
2022/08/02 02:30:58;;;;;;;10.75;4.35;;;;;;;;;;5057713;28;20097;-74
2022/08/02 02:33:24;;;;;;;11.38;4.57;;;;;;;;;;5086117;28;20047;-74
2022/08/02 02:35:51;;;;;;;9.98;4.25;;;;;;;;;;5092429;28;20093;-77
2022/08/02 02:38:18;;;;;;;15.05;4.95;;;;;;;;;;5092331;28;20040;-78
2022/08/02 02:40:46;;;;;;;12.13;4.68;;;;;;;;;;5041253;28;20105;-77
2022/08/02 02:43:12;;;;;;;12.23;4.35;;;;;;;;;;5073746;28;20078;-75
2022/08/02 02:45:39;;;;;;;14.13;4.28;;;;;;;;;;5074495;28;20423;-77
2022/08/02 02:48:07;;;;;;;9.55;4.32;;;;;;;;;;5057174;28;20047;-75
2022/08/02 02:50:33;;;;;;;11.70;5.18;;;;;;;;;;5073884;28;20054;-72
2022/08/02 02:53:00;;;;;;;10.40;4.70;;;;;;;;;;5073771;28;20048;-70
2022/08/02 02:55:26;;;;;;;12.65;5.05;;;;;;;;;;5074012;28;20040;-71
2022/08/02 02:57:53;;;;;;;12.48;4.60;;;;;;;;;;5073796;28;20086;-71
2022/08/02 03:01:26;;;;;;;13.15;4.68;;;;;;;;;;5056514;28;20044;-71
2022/08/02 03:03:05;;;;;;;15.85;4.53;;;;;;;;;;5050130;28;20048;-70
2022/08/02 03:05:31;;;;;;;14.25;5.35;;;;;;;;;;5073973;28;20039;-68
2022/08/02 03:07:58;;;;;;;12.40;4.85;;;;;;;;;;5073770;28;20024;-70
2022/08/02 03:10:24;;;;;;;16.85;5.30;;;;;;;;;;5056986;28;20119;-71
2022/08/02 03:12:50;;;;;;;11.38;5.28;;;;;;;;;;5073109;28;20508;-70
2022/08/02 03:15:17;;;;;;;14.93;4.85;;;;;;;;;;5072851;28;20047;-70
2022/08/02 03:17:44;;;;;;;13.68;5.07;;;;;;;;;;5073714;28;20032;-71
2022/08/02 03:20:11;;;;;;;10.63;4.63;;;;;;;;;;5073658;28;20500;-71
2022/08/02 03:22:37;;;;;;;14.13;5.28;;;;;;;;;;5073918;28;20094;-70
2022/08/02 03:25:04;;;;;;;10.80;5.20;;;;;;;;;;5073453;28;20511;-71
2022/08/02 03:27:30;;;;;;;12.25;6.10;;;;;;;;;;5079142;28;20210;-71
2022/08/02 03:29:56;;;;;;;11.60;5.53;;;;;;;;;;5056665;28;20039;-71
2022/08/02 03:32:22;;;;;;;10.80;5.53;;;;;;;;;;5078658;28;20126;-71
2022/08/02 03:34:48;;;;;;;9.60;5.78;;;;;;;;;;5073770;28;20051;-70
2022/08/02 03:37:15;;;;;;;14.45;5.38;;;;;;;;;;5073310;28;20032;-71
2022/08/02 03:39:41;;;;;;;13.10;5.90;;;;;;;;;;5073901;28;20431;-71
2022/08/02 03:42:07;;;;;;;15.25;6.18;;;;;;;;;;5055671;28;20509;-71
2022/08/02 03:44:34;;;;;;;10.85;5.43;;;;;;;;;;5073108;28;20036;-71
2022/08/02 03:47:00;;;;;;;14.90;5.97;;;;;;;;;;5056958;28;20077;-71
2022/08/02 03:49:26;;;;;;;17.23;5.90;;;;;;;;;;5073472;28;20036;-71
2022/08/02 03:51:53;;;;;;;13.93;5.93;;;;;;;;;;5073312;28;20036;-71
2022/08/02 03:54:19;;;;;;;13.27;5.68;;;;;;;;;;5073524;28;20036;-71
2022/08/02 03:56:45;;;;;;;11.35;5.40;;;;;;;;;;5073474;28;20044;-70
2022/08/02 03:59:12;;;;;;;12.07;5.28;;;;;;;;;;5072756;28;20047;-71
2022/08/02 04:01:39;;;;;;;14.52;6.00;;;;;;;;;;5070175;28;20516;-70
2022/08/02 04:04:06;;;;;;;15.75;5.68;;;;;;;;;;5082425;28;20035;-71
2022/08/02 04:06:32;;;;;;;14.10;5.32;;;;;;;;;;5061681;28;20037;-71
2022/08/02 04:08:58;;;;;;;13.02;5.78;;;;;;;;;;5061962;28;20101;-70
2022/08/02 04:11:30;;;;;;;10.25;5.35;;;;;;;;;;5077678;28;20088;-71
2022/08/02 04:13:57;;;;;;;10.95;4.80;;;;;;;;;;5083686;28;20486;-71
2022/08/02 04:16:28;;;;;;;10.45;4.95;;;;;;;;;;5063427;28;20044;-71
2022/08/02 04:18:56;;;;;;;11.02;4.88;;;;;;;;;;5074228;28;20041;-72
2022/08/02 04:21:25;;;;;;;9.60;4.60;;;;;;;;;;5060994;28;20076;-71
2022/08/02 04:23:52;;;;;;;14.05;5.18;;;;;;;;;;5070841;28;20040;-70
2022/08/02 04:26:18;;;;;;;11.02;5.05;;;;;;;;;;5070599;28;20051;-70
2022/08/02 04:28:45;;;;;;;9.60;4.82;;;;;;;;;;5097556;28;20078;-71
2022/08/02 04:31:11;;;;;;;12.25;4.35;;;;;;;;;;5065147;28;20397;-71
2022/08/02 04:33:38;;;;;;;10.00;5.00;;;;;;;;;;5071451;28;20036;-71
2022/08/02 04:36:05;;;;;;;8.75;4.55;;;;;;;;;;5059333;28;20059;-70
2022/08/02 04:38:31;;;;;;;14.98;4.75;;;;;;;;;;5059590;28;20189;-71
2022/08/02 04:40:57;;;;;;;10.10;4.18;;;;;;;;;;5076229;28;20054;-70
2022/08/02 04:43:24;;;;;;;13.82;4.45;;;;;;;;;;5072892;28;20054;-72
2022/08/02 04:45:51;;;;;;;11.30;3.88;;;;;;;;;;5080345;28;20039;-70
2022/08/02 04:48:17;;;;;;;10.93;4.43;;;;;;;;;;5080329;28;20078;-70
2022/08/02 04:50:43;;;;;;;11.10;4.13;;;;;;;;;;5076231;28;20041;-71
2022/08/02 04:53:09;;;;;;;12.82;4.55;;;;;;;;;;5084059;28;20047;-71
2022/08/02 04:55:35;;;;;;;7.80;3.80;;;;;;;;;;5056004;28;20062;-69
2022/08/02 04:58:01;;;;;;;12.57;4.03;;;;;;;;;;5099136;28;20027;-71
2022/08/02 05:00:28;;;;;;;10.32;4.18;;;;;;;;;;5074057;28;20481;-71
2022/08/02 05:02:58;;;;;;;7.28;3.60;;;;;;;;;;5087880;28;20032;-69
2022/08/02 05:05:24;;;;;;;8.77;3.80;;;;;;;;;;5074129;28;20115;-69
2022/08/02 05:07:50;;;;;;;7.38;3.55;;;;;;;;;;5086940;28;20136;-70
2022/08/02 05:10:16;;;;;;;11.43;3.92;;;;;;;;;;5088031;28;20039;-68
2022/08/02 05:12:42;;;;;;;11.50;3.65;;;;;;;;;;5083008;28;20037;-70
2022/08/02 05:15:09;;;;;;;10.98;4.10;;;;;;;;;;5097496;28;20497;-70
2022/08/02 05:17:35;;;;;;;10.68;3.92;;;;;;;;;;5098935;28;20501;-71
2022/08/02 05:20:01;;;;;;;7.93;3.72;;;;;;;;;;5063941;28;20521;-71
2022/08/02 05:22:27;;;;;;;8.45;3.70;;;;;;;;;;5073277;28;20037;-71
2022/08/02 05:24:56;;;;;;;8.88;3.78;;;;;;;;;;5085807;28;20043;-70
2022/08/02 05:27:22;;;;;;;7.28;3.70;;;;;;;;;;5070944;28;20047;-71
2022/08/02 05:29:50;;;;;;;8.70;3.50;;;;;;;;;;5074448;28;20403;-73
2022/08/02 05:32:17;;;;;;;8.43;3.33;;;;;;;;;;5078472;28;20484;-71
2022/08/02 05:34:43;;;;;;;9.55;3.47;;;;;;;;;;5057494;28;20044;-75
2022/08/02 05:37:09;;;;;;;7.22;3.33;;;;;;;;;;5073148;28;20044;-78
2022/08/02 05:39:35;;;;;;;7.63;2.90;;;;;;;;;;5059154;28;20381;-79
2022/08/02 05:42:01;;;;;;;7.63;3.40;;;;;;;;;;5058135;28;20044;-78
2022/08/02 05:44:28;;;;;;;11.50;3.58;;;;;;;;;;5034421;28;20039;-78
2022/08/02 05:46:54;;;;;;;7.15;3.30;;;;;;;;;;5075171;28;20032;-74
2022/08/02 05:49:20;;;;;;;6.30;2.70;;;;;;;;;;5074853;28;20077;-78
2022/08/02 05:51:51;;;;;;;7.75;2.90;;;;;;;;;;5075685;28;20051;-78
2022/08/02 05:54:25;;;;;;;8.57;3.00;;;;;;;;;;5075359;28;20036;-74
2022/08/02 05:56:51;;;;;;;7.05;2.85;;;;;;;;;;5074912;28;20046;-75
2022/08/02 05:59:18;;;;;;;9.40;2.92;;;;;;;;;;5075036;28;20484;-74
2022/08/02 06:01:47;;;;;;;8.43;3.10;;;;;;;;;;5093441;28;20032;-78
2022/08/02 06:04:20;;;;;;;6.07;2.78;;;;;;;;;;5075223;28;20043;-79
2022/08/02 06:06:48;;;;;;;11.73;3.50;;;;;;;;;;5075387;28;20085;-74
2022/08/02 06:09:15;;;;;;;7.38;3.00;;;;;;;;;;5074754;28;20105;-79
2022/08/02 06:11:45;;;;;;;11.48;3.05;;;;;;;;;;5057637;28;20131;-76
2022/08/02 06:14:12;;;;;;;6.90;2.90;;;;;;;;;;5093145;28;20036;-79
2022/08/02 06:16:39;;;;;;;9.18;2.90;;;;;;;;;;5057977;28;20038;-77
2022/08/02 06:19:05;;;;;;;8.35;3.33;;;;;;;;;;5074372;28;20086;-75
2022/08/02 06:21:31;;;;;;;8.73;3.15;;;;;;;;;;5073701;28;20093;-76
2022/08/02 06:23:58;;;;;;;11.10;3.28;;;;;;;;;;5074664;28;20032;-78
2022/08/02 06:26:25;;;;;;;5.38;2.80;;;;;;;;;;5073681;28;20135;-76
2022/08/02 06:28:55;;;;;;;10.10;2.78;;;;;;;;;;5063361;28;20497;-78
2022/08/02 06:31:21;;;;;;;9.20;3.15;;;;;;;;;;5062847;28;20119;-77
2022/08/02 06:33:49;;;;;;;7.28;2.90;;;;;;;;;;5071442;28;20101;-80
2022/08/02 06:36:15;;;;;;;6.72;2.67;;;;;;;;;;5074379;28;20051;-80
2022/08/02 06:38:50;;;;;;;7.28;2.90;;;;;;;;;;5056403;28;20032;-76
2022/08/02 06:41:17;;;;;;;7.70;2.97;;;;;;;;;;5074013;28;20044;-76
2022/08/02 06:43:43;;;;;;;4.85;2.67;;;;;;;;;;5074163;28;20043;-78
2022/08/02 06:46:09;;;;;;;6.50;2.70;;;;;;;;;;5074354;28;20574;-75
2022/08/02 06:48:35;;;;;;;4.57;2.55;;;;;;;;;;5074026;28;20094;-78
2022/08/02 06:51:02;;;;;;;6.65;2.83;;;;;;;;;;5073946;28;20040;-78
2022/08/02 06:53:28;;;;;;;6.85;2.38;;;;;;;;;;5057725;28;20113;-79
2022/08/02 06:55:54;;;;;;;6.70;2.50;;;;;;;;;;5057648;28;20047;-80
2022/08/02 06:58:20;;;;;;;6.03;2.15;;;;;;;;;;5074405;28;20134;-74
2022/08/02 07:00:46;;;;;;;7.35;2.30;;;;;;;;;;5041006;28;20082;-77
2022/08/02 07:03:13;;;;;;;5.85;2.30;;;;;;;;;;5094308;28;20040;-81
2022/08/02 07:05:40;;;;;;;6.20;2.50;;;;;;;;;;5081272;28;20047;-80
2022/08/02 07:08:06;;;;;;;5.65;2.30;;;;;;;;;;5085502;28;20039;-78
2022/08/02 07:10:32;;;;;;;7.60;2.45;;;;;;;;;;5084946;28;20044;-79
2022/08/02 07:12:58;;;;;;;7.60;2.47;;;;;;;;;;5074307;28;20093;-79
2022/08/02 07:15:24;;;;;;;6.47;2.20;;;;;;;;;;5104052;28;20145;-77
2022/08/02 07:17:51;;;;;;;6.10;2.17;;;;;;;;;;5050590;28;20044;-80
2022/08/02 07:20:17;;;;;;;5.22;2.17;;;;;;;;;;5060557;28;20136;-80
2022/08/02 07:22:43;;;;;;;6.78;2.20;;;;;;;;;;5061572;28;20041;-75
2022/08/02 07:25:09;;;;;;;7.05;2.10;;;;;;;;;;5089332;28;20088;-75
2022/08/02 07:27:35;;;;;;;5.15;2.17;;;;;;;;;;5065816;28;20123;-80
2022/08/02 07:30:01;;;;;;;9.13;2.38;;;;;;;;;;5081333;28;20119;-81
2022/08/02 07:32:29;;;;;;;5.82;2.40;;;;;;;;;;5062094;28;20040;-81
2022/08/02 07:34:55;;;;;;;5.35;2.22;;;;;;;;;;5073846;28;20054;-79
2022/08/02 07:37:22;;;;;;;6.65;2.08;;;;;;;;;;5073624;28;20043;-77
2022/08/02 07:39:48;;;;;;;6.93;2.45;;;;;;;;;;5057094;28;20488;-80
2022/08/02 07:42:14;;;;;;;5.03;2.17;;;;;;;;;;5073563;28;20040;-78
2022/08/02 07:44:40;;;;;;;6.68;1.90;;;;;;;;;;5056983;28;20519;-75
2022/08/02 07:47:06;;;;;;;5.22;2.22;;;;;;;;;;5056351;28;20122;-81
2022/08/02 07:49:32;;;;;;;4.40;2.05;;;;;;;;;;5056723;28;20055;-78
2022/08/02 07:51:58;;;;;;;5.97;2.03;;;;;;;;;;5074901;28;20148;-76
2022/08/02 07:54:25;;;;;;;6.28;2.10;;;;;;;;;;5074714;28;20040;-77
2022/08/02 07:56:52;;;;;;;5.45;2.15;;;;;;;;;;5073189;28;20047;-80
2022/08/02 07:59:18;;;;;;;7.97;2.10;;;;;;;;;;5073735;28;21468;-80
2022/08/02 08:01:45;;;;;;;6.72;2.35;;;;;;;;;;5075246;28;20412;-76
2022/08/02 08:04:11;;;;;;;5.18;2.10;;;;;;;;;;5077296;28;20044;-77
2022/08/02 08:06:37;;;;;;;5.68;2.13;;;;;;;;;;5060305;28;20032;-75
2022/08/02 08:09:03;;;;;;;10.25;2.28;;;;;;;;;;5077486;28;20032;-73
2022/08/02 08:11:29;;;;;;;5.05;1.88;;;;;;;;;;5077149;28;20035;-73
2022/08/02 08:13:55;;;;;;;4.32;2.17;;;;;;;;;;5076529;28;20048;-72
2022/08/02 08:16:21;;;;;;;6.63;2.25;;;;;;;;;;5094604;28;20089;-72
2022/08/02 08:18:47;;;;;;;6.95;2.40;;;;;;;;;;5076797;28;20085;-74
2022/08/02 08:21:13;;;;;;;6.03;2.50;;;;;;;;;;5060094;28;20485;-74
2022/08/02 08:23:40;;;;;;;7.03;2.33;;;;;;;;;;5091406;28;20044;-74
2022/08/02 08:26:06;;;;;;;8.90;2.50;;;;;;;;;;5082257;28;20558;-74
2022/08/02 08:28:34;;;;;;;5.45;2.20;;;;;;;;;;5068910;28;20128;-72
2022/08/02 08:31:00;;;;;;;5.20;2.33;;;;;;;;;;5051378;28;20131;-74
2022/08/02 08:33:26;;;;;;;7.93;2.38;;;;;;;;;;5070921;28;20046;-74
2022/08/02 08:35:52;;;;;;;7.13;2.55;;;;;;;;;;5075953;28;20042;-75
2022/08/02 08:38:19;;;;;;;3.97;2.53;;;;;;;;;;5076695;28;20550;-73
2022/08/02 08:40:48;;;;;;;10.13;2.50;;;;;;;;;;5059399;28;20051;-76
2022/08/02 08:43:14;;;;;;;6.35;2.38;;;;;;;;;;5076775;28;20048;-75
2022/08/02 08:45:44;;;;;;;4.72;2.20;;;;;;;;;;5075177;28;20040;-76
2022/08/02 08:48:12;;;;;;;5.72;2.35;;;;;;;;;;5076837;28;20040;-72
2022/08/02 08:50:39;;;;;;;4.93;2.42;;;;;;;;;;5059957;28;20408;-71
2022/08/02 08:53:06;;;;;;;4.38;2.30;;;;;;;;;;5076620;28;20143;-73
2022/08/02 08:55:33;;;;;;;5.95;2.33;;;;;;;;;;5076626;28;20051;-74
2022/08/02 08:58:00;;;;;;;5.65;2.40;;;;;;;;;;5059016;28;20633;-74
2022/08/02 09:00:27;;;;;;;8.68;2.40;;;;;;;;;;5068302;28;20559;-72
2022/08/02 09:02:53;;;;;;;5.78;2.22;;;;;;;;;;5058836;28;20396;-72
2022/08/02 09:05:19;;;;;;;8.02;2.55;;;;;;;;;;5076115;28;20490;-73
2022/08/02 09:07:49;;;;;;;6.82;2.40;;;;;;;;;;5056199;28;20258;-75
2022/08/02 09:10:34;;;;;;;7.15;2.20;;;;;;;;;;5061757;28;20036;-73
2022/08/02 09:13:16;;;;;;;7.35;2.33;;;;;;;;;;5060995;28;20032;-75
2022/08/02 09:15:43;;;;;;;7.97;2.20;;;;;;;;;;5058770;28;20072;-74
2022/08/02 09:18:09;;;;;;;4.90;2.28;;;;;;;;;;5062812;28;20115;-76
2022/08/02 09:20:51;;;;;;;6.20;2.45;;;;;;;;;;5053716;28;20048;-74
2022/08/02 09:23:17;;;;;;;4.03;2.00;;;;;;;;;;5089155;28;20040;-75
2022/08/02 09:25:54;;;;;;;5.05;2.30;;;;;;;;;;5079090;28;20040;-75
2022/08/02 09:28:21;;;;;;;10.10;2.90;;;;;;;;;;5077995;28;20059;-76
2022/08/02 09:30:47;;;;;;;5.50;2.33;;;;;;;;;;5062210;28;20036;-74
2022/08/02 09:33:16;;;;;;;4.97;2.35;;;;;;;;;;5075965;28;20051;-77
2022/08/02 09:35:42;;;;;;;5.22;2.30;;;;;;;;;;5075727;28;20492;-74
2022/08/02 09:38:12;;;;;;;6.03;2.15;;;;;;;;;;5075447;28;20485;-75
2022/08/02 09:40:39;;;;;;;5.35;2.15;;;;;;;;;;5058426;28;20126;-74
2022/08/02 09:43:06;;;;;;;6.43;2.30;;;;;;;;;;5068629;28;20052;-74
2022/08/02 09:45:36;;;;;;;4.80;2.25;;;;;;;;;;5042510;28;20044;-74
2022/08/02 09:48:08;;;;;;;5.68;2.05;;;;;;;;;;5074577;28;20048;-75
2022/08/02 09:50:39;;;;;;;4.78;2.40;;;;;;;;;;5076017;28;20032;-76
2022/08/02 09:53:06;;;;;;;6.10;2.30;;;;;;;;;;5112679;28;20035;-75
2022/08/02 09:55:32;;;;;;;4.53;2.20;;;;;;;;;;5094039;28;20491;-74
2022/08/02 09:57:58;;;;;;;5.10;2.67;;;;;;;;;;5077339;28;20046;-74
2022/08/02 10:00:24;;;;;;;5.60;2.83;;;;;;;;;;5090500;28;20384;-75
2022/08/02 10:03:06;;;;;;;5.55;2.80;;;;;;;;;;5080783;28;20165;-74
2022/08/02 10:05:45;;;;;;;6.18;2.83;;;;;;;;;;5094617;28;20500;-75
2022/08/02 10:08:11;;;;;;;6.03;2.60;;;;;;;;;;5093647;28;20043;-76
2022/08/02 10:10:37;;;;;;;27.83;3.85;;;;;;;;;;5093308;28;20488;-78
2022/08/02 10:13:04;;;;;;;7.32;2.80;;;;;;;;;;5062698;28;20384;-76
2022/08/02 10:15:30;;;;;;;4.78;3.50;;;;;;;;;;5088030;28;20039;-74
2022/08/02 10:17:56;;;;;;;23.23;4.20;;;;;;;;;;5091819;28;20071;-75
2022/08/02 10:20:23;;;;;;;4.85;2.90;;;;;;;;;;5093688;28;20488;-75
2022/08/02 10:22:50;;;;;;;4.80;3.17;;;;;;;;;;5077290;28;20130;-75
2022/08/02 10:25:16;;;;;;;7.18;2.63;;;;;;;;;;5111261;28;20043;-75
2022/08/02 10:27:43;;;;;;;5.38;2.72;;;;;;;;;;5088435;28;20032;-76
2022/08/02 10:30:09;;;;;;;6.32;3.10;;;;;;;;;;5090539;28;20048;-75
2022/08/02 10:32:41;;;;;;;6.60;2.80;;;;;;;;;;5063037;28;20036;-74
2022/08/02 10:35:10;;;;;;;6.45;2.80;;;;;;;;;;5074668;28;20105;-74
2022/08/02 10:37:38;;;;;;;4.68;3.10;;;;;;;;;;5074879;28;20051;-76
2022/08/02 10:40:04;;;;;;;7.38;3.15;;;;;;;;;;5074174;28;20124;-75
2022/08/02 10:42:43;;;;;;;5.50;3.63;;;;;;;;;;5057398;28;20044;-77
2022/08/02 10:45:10;;;;;;;6.68;3.42;;;;;;;;;;5073335;28;20078;-75
2022/08/02 10:47:36;;;;;;;7.25;4.72;;;;;;;;;;5073422;28;20031;-74
2022/08/02 10:50:04;;;;;;;7.82;4.40;;;;;;;;;;5079181;28;20123;-76
2022/08/02 10:52:30;;;;;;;8.60;4.68;;;;;;;;;;5079566;28;20044;-75
2022/08/02 10:55:01;;;;;;;5.50;4.07;;;;;;;;;;5054460;28;20126;-76
2022/08/02 10:57:28;;;;;;;8.85;5.65;;;;;;;;;;5072795;28;20047;-74
2022/08/02 10:59:56;;;;;;;8.43;5.93;;;;;;;;;;5066998;28;20041;-73
2022/08/02 11:02:39;;;;;;;8.23;5.60;;;;;;;;;;5058039;28;20531;-73
2022/08/02 11:05:06;;;;;;;7.32;5.78;;;;;;;;;;5061526;28;20489;-75
2022/08/02 11:07:34;;;;;;;7.95;5.38;;;;;;;;;;5061020;28;20040;-75
2022/08/02 11:10:20;;;;;;;7.45;5.40;;;;;;;;;;5054879;28;20074;-75
2022/08/02 11:13:10;;;;;;;7.43;5.45;;;;;;;;;;5072983;28;20040;-76
2022/08/02 11:15:57;;;;;;;6.88;4.32;;;;;;;;;;5048735;28;20090;-74
2022/08/02 11:18:44;;;;;;;8.57;4.30;;;;;;;;;;5065267;28;20093;-76
2022/08/02 11:21:24;;;;;;;5.70;4.15;;;;;;;;;;5058158;28;20037;-75
2022/08/02 11:23:51;;;;;;;8.25;4.18;;;;;;;;;;5059481;28;20047;-72
2022/08/02 11:26:29;;;;;;;8.38;4.40;;;;;;;;;;5057621;28;20047;-76
2022/08/02 11:28:56;;;;;;;5.47;3.70;;;;;;;;;;5069181;28;20056;-76
2022/08/02 11:31:22;;;;;;;9.13;4.65;;;;;;;;;;5063457;28;20085;-75
2022/08/02 11:33:49;;;;;;;7.35;4.18;;;;;;;;;;5072013;28;20486;-73
2022/08/02 11:36:16;;;;;;;8.20;5.07;;;;;;;;;;5060066;28;20087;-72
2022/08/02 11:38:42;;;;;;;18.08;4.80;;;;;;;;;;5077553;28;20047;-72
2022/08/02 11:41:09;;;;;;;10.00;5.20;;;;;;;;;;5077157;28;20039;-74
2022/08/02 11:43:36;;;;;;;9.15;5.75;;;;;;;;;;5094646;28;20098;-75
2022/08/02 11:46:03;;;;;;;7.68;4.72;;;;;;;;;;5077067;28;20189;-75
2022/08/02 11:48:36;;;;;;;7.75;4.40;;;;;;;;;;5095656;28;20032;-75
2022/08/02 11:51:03;;;;;;;8.82;4.50;;;;;;;;;;5077470;28;20047;-74
2022/08/02 11:53:33;;;;;;;10.93;4.45;;;;;;;;;;5057635;28;20426;-76
2022/08/02 11:55:59;;;;;;;6.88;3.80;;;;;;;;;;5092415;28;20132;-73
2022/08/02 11:58:26;;;;;;;9.52;4.30;;;;;;;;;;5059889;28;20046;-73
2022/08/02 12:00:53;;;;;;;12.13;4.15;;;;;;;;;;5073051;28;20396;-72
2022/08/02 12:03:19;;;;;;;6.95;4.63;;;;;;;;;;5095483;28;20040;-73
2022/08/02 12:05:48;;;;;;;6.40;4.35;;;;;;;;;;5077368;28;20480;-73
2022/08/02 12:08:14;;;;;;;8.13;4.25;;;;;;;;;;5063658;28;20478;-74
2022/08/02 12:10:50;;;;;;;6.65;3.55;;;;;;;;;;5076733;28;20116;-73
2022/08/02 12:13:16;;;;;;;7.22;3.08;;;;;;;;;;5077245;28;20537;-72
2022/08/02 12:15:44;;;;;;;5.07;3.30;;;;;;;;;;5076630;28;20036;-73
2022/08/02 12:21:20;;;;;;;9.82;3.80;;;;;;;;;;5077503;28;20032;-73
2022/08/02 12:23:46;;;;;;;45.08;5.53;;;;;;;;;;5076596;28;20123;-73
2022/08/02 12:26:13;;;;;;;6.75;3.30;;;;;;;;;;5076098;28;20072;-73
2022/08/02 12:28:40;;;;;;;7.68;4.47;;;;;;;;;;5086007;28;20048;-74
2022/08/02 12:31:10;;;;;;;5.78;4.07;;;;;;;;;;5068310;28;20044;-73
2022/08/02 12:33:52;;;;;;;6.57;4.07;;;;;;;;;;5072174;28;20516;-73
2022/08/02 12:36:20;;;;;;;7.45;4.20;;;;;;;;;;5075986;28;20044;-75
2022/08/02 12:38:50;;;;;;;5.30;3.90;;;;;;;;;;5076522;28;20068;-74
2022/08/02 12:41:16;;;;;;;7.13;4.05;;;;;;;;;;5081121;28;20087;-73
2022/08/02 12:43:43;;;;;;;9.73;5.03;;;;;;;;;;5071930;28;20036;-75
2022/08/02 12:46:15;;;;;;;10.77;4.95;;;;;;;;;;5063534;28;20044;-74
2022/08/02 12:48:41;;;;;;;8.40;5.20;;;;;;;;;;5066358;28;20078;-74
2022/08/02 12:51:20;;;;;;;8.88;4.95;;;;;;;;;;5083419;28;20099;-75
2022/08/02 12:53:46;;;;;;;10.35;5.07;;;;;;;;;;5078975;28;20444;-75
2022/08/02 12:56:12;;;;;;;7.68;4.47;;;;;;;;;;5055321;28;20127;-74
2022/08/02 12:58:48;;;;;;;10.80;5.38;;;;;;;;;;5077704;28;20074;-74
2022/08/02 13:01:19;;;;;;;7.38;4.45;;;;;;;;;;5089120;28;20031;-74
2022/08/02 13:03:45;;;;;;;9.05;5.38;;;;;;;;;;5090461;28;20512;-75
2022/08/02 13:06:11;;;;;;;6.72;4.50;;;;;;;;;;5076326;28;20504;-75
2022/08/02 13:08:38;;;;;;;6.10;4.30;;;;;;;;;;5057183;28;20041;-76
2022/08/02 13:11:04;;;;;;;9.68;4.93;;;;;;;;;;5086122;28;20048;-75
2022/08/02 13:13:30;;;;;;;7.15;3.97;;;;;;;;;;5088039;28;20130;-74
2022/08/02 13:15:57;;;;;;;6.00;3.78;;;;;;;;;;5072906;28;20044;-75
2022/08/02 13:18:23;;;;;;;7.20;4.43;;;;;;;;;;5085903;28;20065;-74
2022/08/02 13:20:49;;;;;;;8.40;4.28;;;;;;;;;;5061886;28;20028;-74
2022/08/02 13:23:15;;;;;;;6.07;3.90;;;;;;;;;;5062399;28;20086;-76
2022/08/02 13:25:42;;;;;;;8.18;4.20;;;;;;;;;;5068520;28;20059;-74
2022/08/02 13:28:08;;;;;;;6.43;3.70;;;;;;;;;;5079340;28;20052;-75
2022/08/02 13:30:34;;;;;;;6.85;3.78;;;;;;;;;;5051901;28;20052;-74
2022/08/02 13:33:00;;;;;;;6.80;4.20;;;;;;;;;;5043045;28;20043;-75
2022/08/02 13:35:27;;;;;;;7.32;4.60;;;;;;;;;;5087437;28;20130;-74
2022/08/02 13:37:53;;;;;;;7.50;4.40;;;;;;;;;;5061025;28;20370;-74
2022/08/02 13:40:19;;;;;;;9.32;4.63;;;;;;;;;;5064016;28;20097;-74
2022/08/02 13:42:45;;;;;;;7.47;4.18;;;;;;;;;;5070580;28;20038;-74
2022/08/02 13:45:11;;;;;;;6.28;4.38;;;;;;;;;;5076001;28;20048;-75
2022/08/02 13:47:38;;;;;;;6.97;3.97;;;;;;;;;;5078847;28;20040;-75
2022/08/02 13:50:05;;;;;;;6.32;3.92;;;;;;;;;;5084059;28;20039;-74
2022/08/02 13:52:31;;;;;;;5.72;4.35;;;;;;;;;;5073279;28;20046;-76
2022/08/02 13:54:58;;;;;;;8.75;4.82;;;;;;;;;;5058470;28;20138;-76
2022/08/02 13:57:24;;;;;;;8.13;4.35;;;;;;;;;;5059674;28;20400;-75
2022/08/02 13:59:51;;;;;;;7.88;4.13;;;;;;;;;;5060738;28;20047;-75
2022/08/02 14:02:17;;;;;;;7.25;4.40;;;;;;;;;;5071831;28;20514;-75
2022/08/02 14:04:43;;;;;;;7.53;4.72;;;;;;;;;;5073140;28;20119;-75
2022/08/02 14:07:09;;;;;;;6.68;4.22;;;;;;;;;;5069697;28;20146;-76
2022/08/02 14:09:35;;;;;;;7.80;5.00;;;;;;;;;;5064976;28;20494;-76
2022/08/02 14:12:05;;;;;;;7.05;4.10;;;;;;;;;;5073885;28;20040;-76
2022/08/02 14:14:31;;;;;;;7.13;4.80;;;;;;;;;;5080353;28;20086;-77
2022/08/02 14:16:57;;;;;;;8.23;4.50;;;;;;;;;;5060213;28;20059;-77
2022/08/02 14:19:24;;;;;;;5.75;4.20;;;;;;;;;;5075175;28;20051;-78
2022/08/02 14:21:50;;;;;;;7.63;4.40;;;;;;;;;;5052396;28;20033;-77
2022/08/02 14:24:17;;;;;;;7.60;3.80;;;;;;;;;;5058652;28;20040;-76
2022/08/02 14:26:44;;;;;;;7.00;4.85;;;;;;;;;;5085065;28;20043;-76
2022/08/02 14:29:10;;;;;;;4.72;3.95;;;;;;;;;;5086287;28;20052;-76
2022/08/02 14:31:37;;;;;;;9.23;4.20;;;;;;;;;;5077191;28;20032;-78
2022/08/02 14:34:03;;;;;;;7.40;4.00;;;;;;;;;;5058666;28;20048;-77
2022/08/02 14:36:29;;;;;;;5.30;3.72;;;;;;;;;;5069251;28;20044;-76
2022/08/02 14:38:55;;;;;;;5.25;3.78;;;;;;;;;;5077019;28;20036;-77
2022/08/02 14:41:22;;;;;;;6.80;3.80;;;;;;;;;;5073750;28;20062;-80
2022/08/02 14:44:03;;;;;;;6.05;3.53;;;;;;;;;;5072405;28;20075;-78
2022/08/02 14:46:33;;;;;;;5.75;3.30;;;;;;;;;;5050544;28;20036;-76